sensor_id;sensor_type;location;lat;lon;timestamp;pressure;altitude;pressure_sealevel;temperature;humidity
57248;BME280;55809;46.618;10.764;2023-04-20T00:01:51;92327.09;;;10.26;56.48
57248;BME280;55809;46.618;10.764;2023-04-20T00:04:18;92339.25;;;10.38;56.27
57248;BME280;55809;46.618;10.764;2023-04-20T00:06:47;92289.25;;;10.06;56.46
57248;BME280;55809;46.618;10.764;2023-04-20T00:09:16;92332.19;;;10.44;56.57
57248;BME280;55809;46.618;10.764;2023-04-20T00:11:43;92326.44;;;10.42;56.32
57248;BME280;55809;46.618;10.764;2023-04-20T00:14:10;92329.59;;;10.61;55.39
57248;BME280;55809;46.618;10.764;2023-04-20T00:16:37;92322.34;;;10.57;55.53
57248;BME280;55809;46.618;10.764;2023-04-20T00:19:04;92323.22;;;10.51;56.30
57248;BME280;55809;46.618;10.764;2023-04-20T00:21:31;92315.94;;;10.48;56.77
57248;BME280;55809;46.618;10.764;2023-04-20T00:24:00;92329.19;;;10.39;57.04
57248;BME280;55809;46.618;10.764;2023-04-20T00:26:27;92314.06;;;10.21;57.51
57248;BME280;55809;46.618;10.764;2023-04-20T00:28:54;92326.38;;;10.22;57.82
57248;BME280;55809;46.618;10.764;2023-04-20T00:31:21;92277.88;;;9.95;58.20
57248;BME280;55809;46.618;10.764;2023-04-20T00:33:48;92304.59;;;10.09;57.80
57248;BME280;55809;46.618;10.764;2023-04-20T00:36:15;92319.50;;;10.18;57.67
57248;BME280;55809;46.618;10.764;2023-04-20T00:38:42;92314.94;;;10.15;57.69
57248;BME280;55809;46.618;10.764;2023-04-20T00:41:10;92310.72;;;10.14;57.71
57248;BME280;55809;46.618;10.764;2023-04-20T00:43:37;92315.69;;;10.15;58.12
57248;BME280;55809;46.618;10.764;2023-04-20T00:46:04;92297.69;;;10.08;58.39
57248;BME280;55809;46.618;10.764;2023-04-20T00:48:31;92318.34;;;10.19;58.12
57248;BME280;55809;46.618;10.764;2023-04-20T00:50:58;92310.31;;;10.15;58.27
57248;BME280;55809;46.618;10.764;2023-04-20T00:53:25;92310.66;;;10.17;58.09
57248;BME280;55809;46.618;10.764;2023-04-20T00:55:52;92306.09;;;10.14;58.01
57248;BME280;55809;46.618;10.764;2023-04-20T00:58:21;92309.13;;;10.16;57.92
57248;BME280;55809;46.618;10.764;2023-04-20T01:00:48;92312.63;;;10.13;58.30
57248;BME280;55809;46.618;10.764;2023-04-20T01:03:15;92308.91;;;10.07;58.74
57248;BME280;55809;46.618;10.764;2023-04-20T01:05:42;92307.91;;;9.97;57.28
57248;BME280;55809;46.618;10.764;2023-04-20T01:08:10;92299.16;;;9.90;56.57
57248;BME280;55809;46.618;10.764;2023-04-20T01:10:36;92288.22;;;9.73;56.02
57248;BME280;55809;46.618;10.764;2023-04-20T01:13:03;92304.41;;;9.73;55.79
57248;BME280;55809;46.618;10.764;2023-04-20T01:15:32;92290.84;;;9.53;56.16
57248;BME280;55809;46.618;10.764;2023-04-20T01:17:59;92252.69;;;9.31;57.04
57248;BME280;55809;46.618;10.764;2023-04-20T01:20:27;92309.50;;;9.68;57.11
57248;BME280;55809;46.618;10.764;2023-04-20T01:22:55;92263.69;;;9.40;56.91
57248;BME280;55809;46.618;10.764;2023-04-20T01:25:22;92299.00;;;9.73;56.65
57248;BME280;55809;46.618;10.764;2023-04-20T01:27:49;92295.16;;;9.74;55.91
57248;BME280;55809;46.618;10.764;2023-04-20T01:30:16;92297.34;;;9.56;56.12
57248;BME280;55809;46.618;10.764;2023-04-20T01:32:43;92274.56;;;9.33;56.31
57248;BME280;55809;46.618;10.764;2023-04-20T01:35:11;92278.69;;;9.42;56.82
57248;BME280;55809;46.618;10.764;2023-04-20T01:37:38;92302.28;;;9.61;57.72
57248;BME280;55809;46.618;10.764;2023-04-20T01:40:08;92307.91;;;9.70;58.32
57248;BME280;55809;46.618;10.764;2023-04-20T01:42:35;92292.09;;;9.72;58.58
57248;BME280;55809;46.618;10.764;2023-04-20T01:45:03;92291.22;;;9.79;57.75
57248;BME280;55809;46.618;10.764;2023-04-20T01:47:31;92295.75;;;9.85;56.53
57248;BME280;55809;46.618;10.764;2023-04-20T01:49:58;92263.16;;;9.76;55.54
57248;BME280;55809;46.618;10.764;2023-04-20T01:52:24;92276.06;;;9.89;55.00
57248;BME280;55809;46.618;10.764;2023-04-20T01:54:51;92293.81;;;9.86;54.69
57248;BME280;55809;46.618;10.764;2023-04-20T01:57:20;92295.88;;;9.78;54.94
57248;BME280;55809;46.618;10.764;2023-04-20T01:59:47;92283.22;;;9.75;54.79
57248;BME280;55809;46.618;10.764;2023-04-20T02:02:14;92285.78;;;9.82;55.49
57248;BME280;55809;46.618;10.764;2023-04-20T02:04:41;92286.59;;;9.79;55.25
57248;BME280;55809;46.618;10.764;2023-04-20T02:07:08;92285.16;;;9.75;56.15
57248;BME280;55809;46.618;10.764;2023-04-20T02:09:35;92283.59;;;9.74;55.56
57248;BME280;55809;46.618;10.764;2023-04-20T02:12:02;92266.72;;;9.70;56.09
57248;BME280;55809;46.618;10.764;2023-04-20T02:14:30;92283.56;;;9.77;56.66
57248;BME280;55809;46.618;10.764;2023-04-20T02:16:57;92279.63;;;9.82;56.05
57248;BME280;55809;46.618;10.764;2023-04-20T02:19:25;92228.22;;;9.46;55.73
57248;BME280;55809;46.618;10.764;2023-04-20T02:21:52;92276.88;;;9.85;55.61
57248;BME280;55809;46.618;10.764;2023-04-20T02:24:19;92273.81;;;9.83;55.59
57248;BME280;55809;46.618;10.764;2023-04-20T02:26:46;92276.81;;;9.89;55.70
57248;BME280;55809;46.618;10.764;2023-04-20T02:29:13;92273.75;;;9.87;56.51
57248;BME280;55809;46.618;10.764;2023-04-20T02:31:42;92196.47;;;9.33;56.06
57248;BME280;55809;46.618;10.764;2023-04-20T02:34:08;92244.97;;;9.57;56.39
57248;BME280;55809;46.618;10.764;2023-04-20T02:36:35;92243.16;;;9.50;56.60
57248;BME280;55809;46.618;10.764;2023-04-20T02:39:02;92268.28;;;9.71;56.17
57248;BME280;55809;46.618;10.764;2023-04-20T02:41:30;92267.25;;;9.61;56.79
57248;BME280;55809;46.618;10.764;2023-04-20T02:43:57;92268.53;;;9.53;56.96
57248;BME280;55809;46.618;10.764;2023-04-20T02:46:24;92251.72;;;9.45;57.07
57248;BME280;55809;46.618;10.764;2023-04-20T02:48:52;92261.56;;;9.55;57.01
57248;BME280;55809;46.618;10.764;2023-04-20T02:51:19;92202.94;;;9.12;57.36
57248;BME280;55809;46.618;10.764;2023-04-20T02:53:46;92263.03;;;9.60;57.15
57248;BME280;55809;46.618;10.764;2023-04-20T02:56:13;92247.03;;;9.49;57.50
57248;BME280;55809;46.618;10.764;2023-04-20T02:58:40;92268.47;;;9.56;56.84
57248;BME280;55809;46.618;10.764;2023-04-20T03:01:07;92241.91;;;9.31;57.27
57248;BME280;55809;46.618;10.764;2023-04-20T03:03:34;92254.53;;;9.34;57.34
57248;BME280;55809;46.618;10.764;2023-04-20T03:06:03;92274.41;;;9.44;57.70
57248;BME280;55809;46.618;10.764;2023-04-20T03:08:30;92275.25;;;9.41;57.15
57248;BME280;55809;46.618;10.764;2023-04-20T03:10:57;92274.50;;;9.37;57.66
57248;BME280;55809;46.618;10.764;2023-04-20T03:13:23;92275.38;;;9.30;58.15
57248;BME280;55809;46.618;10.764;2023-04-20T03:15:50;92275.59;;;9.43;57.23
57248;BME280;55809;46.618;10.764;2023-04-20T03:18:17;92280.28;;;9.39;57.77
57248;BME280;55809;46.618;10.764;2023-04-20T03:20:44;92279.63;;;9.31;57.73
57248;BME280;55809;46.618;10.764;2023-04-20T03:23:13;92275.28;;;9.37;57.29
57248;BME280;55809;46.618;10.764;2023-04-20T03:25:40;92277.88;;;9.45;57.53
57248;BME280;55809;46.618;10.764;2023-04-20T03:28:07;92276.09;;;9.34;57.67
57248;BME280;55809;46.618;10.764;2023-04-20T03:30:34;92268.31;;;9.40;58.05
57248;BME280;55809;46.618;10.764;2023-04-20T03:33:01;92251.25;;;9.23;57.80
57248;BME280;55809;46.618;10.764;2023-04-20T03:35:28;92269.56;;;9.35;57.48
57248;BME280;55809;46.618;10.764;2023-04-20T03:37:54;92258.09;;;9.28;57.57
57248;BME280;55809;46.618;10.764;2023-04-20T03:40:23;92268.53;;;9.26;57.51
57248;BME280;55809;46.618;10.764;2023-04-20T03:42:50;92274.22;;;9.31;57.52
57248;BME280;55809;46.618;10.764;2023-04-20T03:45:17;92271.53;;;9.31;57.41
57248;BME280;55809;46.618;10.764;2023-04-20T03:47:44;92273.00;;;9.36;57.59
57248;BME280;55809;46.618;10.764;2023-04-20T03:50:11;92273.38;;;9.34;57.50
57248;BME280;55809;46.618;10.764;2023-04-20T03:52:38;92266.84;;;9.35;57.53
57248;BME280;55809;46.618;10.764;2023-04-20T03:55:06;92263.69;;;9.40;57.69
57248;BME280;55809;46.618;10.764;2023-04-20T03:57:34;92256.09;;;9.35;57.68
57248;BME280;55809;46.618;10.764;2023-04-20T04:00:01;92261.72;;;9.45;57.31
57248;BME280;55809;46.618;10.764;2023-04-20T04:02:29;92272.84;;;9.47;57.52
57248;BME280;55809;46.618;10.764;2023-04-20T04:04:56;92281.28;;;9.49;57.01
57248;BME280;55809;46.618;10.764;2023-04-20T04:07:23;92246.28;;;9.22;57.45
57248;BME280;55809;46.618;10.764;2023-04-20T04:09:50;92275.00;;;9.32;57.58
57248;BME280;55809;46.618;10.764;2023-04-20T04:12:17;92276.94;;;9.31;57.12
57248;BME280;55809;46.618;10.764;2023-04-20T04:14:46;92277.31;;;9.30;57.70
57248;BME280;55809;46.618;10.764;2023-04-20T04:17:13;92273.88;;;9.29;57.40
57248;BME280;55809;46.618;10.764;2023-04-20T04:19:40;92275.84;;;9.25;58.09
57248;BME280;55809;46.618;10.764;2023-04-20T04:22:08;92247.19;;;9.11;58.06
57248;BME280;55809;46.618;10.764;2023-04-20T04:24:34;92275.78;;;9.29;58.24
57248;BME280;55809;46.618;10.764;2023-04-20T04:27:03;92235.75;;;9.04;58.21
57248;BME280;55809;46.618;10.764;2023-04-20T04:29:31;92277.56;;;9.39;57.93
57248;BME280;55809;46.618;10.764;2023-04-20T04:32:02;92283.06;;;9.32;57.87
57248;BME280;55809;46.618;10.764;2023-04-20T04:34:29;92280.09;;;9.23;58.08
57248;BME280;55809;46.618;10.764;2023-04-20T04:36:58;92278.28;;;9.16;57.74
57248;BME280;55809;46.618;10.764;2023-04-20T04:39:26;92285.16;;;9.17;58.36
57248;BME280;55809;46.618;10.764;2023-04-20T04:41:53;92278.38;;;9.09;58.64
57248;BME280;55809;46.618;10.764;2023-04-20T04:44:22;92292.81;;;9.22;58.73
57248;BME280;55809;46.618;10.764;2023-04-20T04:46:50;92290.50;;;9.21;58.56
57248;BME280;55809;46.618;10.764;2023-04-20T04:49:18;92298.84;;;9.30;57.82
57248;BME280;55809;46.618;10.764;2023-04-20T04:51:46;92285.38;;;9.30;58.21
57248;BME280;55809;46.618;10.764;2023-04-20T04:54:13;92289.69;;;9.24;57.96
57248;BME280;55809;46.618;10.764;2023-04-20T04:56:39;92309.75;;;9.50;56.81
57248;BME280;55809;46.618;10.764;2023-04-20T04:59:06;92306.66;;;9.51;56.50
57248;BME280;55809;46.618;10.764;2023-04-20T05:01:33;92312.97;;;9.41;59.00
57248;BME280;55809;46.618;10.764;2023-04-20T05:04:00;92322.66;;;9.35;57.90
57248;BME280;55809;46.618;10.764;2023-04-20T05:06:29;92255.38;;;9.01;58.44
57248;BME280;55809;46.618;10.764;2023-04-20T05:08:57;92257.22;;;9.07;58.26
57248;BME280;55809;46.618;10.764;2023-04-20T05:11:24;92317.06;;;9.49;59.12
57248;BME280;55809;46.618;10.764;2023-04-20T05:13:51;92316.41;;;9.42;59.48
57248;BME280;55809;46.618;10.764;2023-04-20T05:16:19;92323.00;;;9.37;60.36
57248;BME280;55809;46.618;10.764;2023-04-20T05:18:46;92325.63;;;9.40;61.04
57248;BME280;55809;46.618;10.764;2023-04-20T05:21:12;92320.72;;;9.35;61.07
57248;BME280;55809;46.618;10.764;2023-04-20T05:23:41;92305.75;;;9.31;61.30
57248;BME280;55809;46.618;10.764;2023-04-20T05:26:08;92238.31;;;8.84;61.57
57248;BME280;55809;46.618;10.764;2023-04-20T05:28:35;92321.06;;;9.37;61.98
57248;BME280;55809;46.618;10.764;2023-04-20T05:31:02;92305.75;;;9.31;62.93
57248;BME280;55809;46.618;10.764;2023-04-20T05:33:29;92319.91;;;9.38;64.88
57248;BME280;55809;46.618;10.764;2023-04-20T05:35:56;92326.38;;;9.45;68.63
57248;BME280;55809;46.618;10.764;2023-04-20T05:38:24;92265.06;;;8.95;71.97
57248;BME280;55809;46.618;10.764;2023-04-20T05:40:52;92320.03;;;8.97;73.81
57248;BME280;55809;46.618;10.764;2023-04-20T05:43:19;92322.94;;;8.79;76.53
57248;BME280;55809;46.618;10.764;2023-04-20T05:45:47;92320.75;;;8.67;76.82
57248;BME280;55809;46.618;10.764;2023-04-20T05:48:14;92324.69;;;8.59;77.72
57248;BME280;55809;46.618;10.764;2023-04-20T05:50:41;92317.78;;;8.58;78.12
57248;BME280;55809;46.618;10.764;2023-04-20T05:53:08;92321.25;;;8.55;78.44
57248;BME280;55809;46.618;10.764;2023-04-20T05:55:35;92319.38;;;8.52;78.46
57248;BME280;55809;46.618;10.764;2023-04-20T05:58:03;92324.69;;;8.59;78.19
57248;BME280;55809;46.618;10.764;2023-04-20T06:00:31;92291.88;;;8.33;77.32
57248;BME280;55809;46.618;10.764;2023-04-20T06:02:57;92328.16;;;8.59;77.29
57248;BME280;55809;46.618;10.764;2023-04-20T06:05:24;92327.72;;;8.61;77.40
57248;BME280;55809;46.618;10.764;2023-04-20T06:07:51;92302.63;;;8.33;77.37
57248;BME280;55809;46.618;10.764;2023-04-20T06:10:18;92326.56;;;8.62;77.36
57248;BME280;55809;46.618;10.764;2023-04-20T06:12:45;92326.91;;;8.67;76.49
57248;BME280;55809;46.618;10.764;2023-04-20T06:15:14;92291.38;;;8.45;75.73
57248;BME280;55809;46.618;10.764;2023-04-20T06:17:41;92326.19;;;8.63;75.67
57248;BME280;55809;46.618;10.764;2023-04-20T06:20:09;92296.88;;;8.31;75.74
57248;BME280;55809;46.618;10.764;2023-04-20T06:22:41;92332.09;;;8.48;76.05
57248;BME280;55809;46.618;10.764;2023-04-20T06:25:10;92344.44;;;8.41;76.08
57248;BME280;55809;46.618;10.764;2023-04-20T06:27:36;92329.91;;;8.32;76.22
57248;BME280;55809;46.618;10.764;2023-04-20T06:30:04;92268.06;;;7.94;74.98
57248;BME280;55809;46.618;10.764;2023-04-20T06:32:33;92323.72;;;8.38;75.09
57248;BME280;55809;46.618;10.764;2023-04-20T06:35:00;92279.00;;;8.14;75.87
57248;BME280;55809;46.618;10.764;2023-04-20T06:37:28;92336.25;;;8.56;75.19
57248;BME280;55809;46.618;10.764;2023-04-20T06:39:55;92339.25;;;8.61;75.06
57248;BME280;55809;46.618;10.764;2023-04-20T06:42:22;92300.75;;;8.30;75.13
57248;BME280;55809;46.618;10.764;2023-04-20T06:44:49;92341.22;;;8.57;75.50
57248;BME280;55809;46.618;10.764;2023-04-20T06:47:16;92295.78;;;8.25;75.29
57248;BME280;55809;46.618;10.764;2023-04-20T06:49:45;92345.13;;;8.53;75.53
57248;BME280;55809;46.618;10.764;2023-04-20T06:52:12;92320.31;;;8.31;75.76
57248;BME280;55809;46.618;10.764;2023-04-20T06:54:39;92346.97;;;8.59;75.06
57248;BME280;55809;46.618;10.764;2023-04-20T06:57:05;92338.06;;;8.66;74.66
57248;BME280;55809;46.618;10.764;2023-04-20T06:59:32;92308.06;;;8.67;73.79
57248;BME280;55809;46.618;10.764;2023-04-20T07:02:00;92345.34;;;9.03;73.29
57248;BME280;55809;46.618;10.764;2023-04-20T07:04:26;92328.66;;;9.46;72.40
57248;BME280;55809;46.618;10.764;2023-04-20T07:06:55;92327.53;;;9.44;71.34
57248;BME280;55809;46.618;10.764;2023-04-20T07:09:22;92329.06;;;9.45;70.93
57248;BME280;55809;46.618;10.764;2023-04-20T07:11:49;92288.94;;;9.23;71.69
57248;BME280;55809;46.618;10.764;2023-04-20T07:14:16;92314.16;;;9.36;72.16
57248;BME280;55809;46.618;10.764;2023-04-20T07:16:43;92316.97;;;9.56;71.37
57248;BME280;55809;46.618;10.764;2023-04-20T07:19:09;92327.56;;;9.71;71.27
57248;BME280;55809;46.618;10.764;2023-04-20T07:21:37;92281.44;;;9.38;72.27
57248;BME280;55809;46.618;10.764;2023-04-20T07:24:06;92316.91;;;9.60;71.86
57248;BME280;55809;46.618;10.764;2023-04-20T07:26:33;92321.16;;;9.57;73.04
57248;BME280;55809;46.618;10.764;2023-04-20T07:28:59;92280.28;;;9.39;72.58
57248;BME280;55809;46.618;10.764;2023-04-20T07:31:31;92297.72;;;9.58;72.31
57248;BME280;55809;46.618;10.764;2023-04-20T07:33:58;92301.03;;;9.93;71.17
57248;BME280;55809;46.618;10.764;2023-04-20T07:36:25;92317.59;;;9.68;72.35
57248;BME280;55809;46.618;10.764;2023-04-20T07:38:52;92330.75;;;9.62;72.00
57248;BME280;55809;46.618;10.764;2023-04-20T07:41:20;92247.59;;;9.10;72.75
57248;BME280;55809;46.618;10.764;2023-04-20T07:43:48;92307.59;;;9.92;71.88
57248;BME280;55809;46.618;10.764;2023-04-20T07:46:19;92316.00;;;10.21;70.54
57248;BME280;55809;46.618;10.764;2023-04-20T07:48:46;92330.00;;;10.59;68.75
57248;BME280;55809;46.618;10.764;2023-04-20T07:51:13;92325.66;;;10.65;69.15
57248;BME280;55809;46.618;10.764;2023-04-20T07:53:40;92308.31;;;10.86;68.09
57248;BME280;55809;46.618;10.764;2023-04-20T07:56:08;92338.84;;;11.03;67.47
57248;BME280;55809;46.618;10.764;2023-04-20T07:58:36;92316.75;;;10.88;66.97
57248;BME280;55809;46.618;10.764;2023-04-20T08:01:05;92315.75;;;10.59;68.13
57248;BME280;55809;46.618;10.764;2023-04-20T08:03:32;92324.50;;;10.43;69.27
57248;BME280;55809;46.618;10.764;2023-04-20T08:05:59;92334.16;;;10.17;69.98
57248;BME280;55809;46.618;10.764;2023-04-20T08:08:26;92325.53;;;10.02;70.47
57248;BME280;55809;46.618;10.764;2023-04-20T08:10:55;92307.19;;;9.93;70.55
57248;BME280;55809;46.618;10.764;2023-04-20T08:13:23;92264.28;;;9.79;70.84
57248;BME280;55809;46.618;10.764;2023-04-20T08:15:51;92305.34;;;10.14;70.54
57248;BME280;55809;46.618;10.764;2023-04-20T08:18:19;92304.69;;;10.29;69.43
57248;BME280;55809;46.618;10.764;2023-04-20T08:20:45;92306.06;;;10.61;68.32
57248;BME280;55809;46.618;10.764;2023-04-20T08:23:12;92297.09;;;11.08;66.22
57248;BME280;55809;46.618;10.764;2023-04-20T08:25:39;92288.78;;;10.98;65.63
57248;BME280;55809;46.618;10.764;2023-04-20T08:28:07;92295.63;;;11.23;65.89
57248;BME280;55809;46.618;10.764;2023-04-20T08:30:34;92288.41;;;11.36;64.76
57248;BME280;55809;46.618;10.764;2023-04-20T08:33:02;92285.88;;;11.29;64.66
57248;BME280;55809;46.618;10.764;2023-04-20T08:35:29;92274.19;;;10.96;66.04
57248;BME280;55809;46.618;10.764;2023-04-20T08:37:56;92291.69;;;10.88;67.26
57248;BME280;55809;46.618;10.764;2023-04-20T08:40:23;92294.16;;;10.59;68.08
57248;BME280;55809;46.618;10.764;2023-04-20T08:42:52;92298.91;;;10.31;69.36
57248;BME280;55809;46.618;10.764;2023-04-20T08:45:19;92240.34;;;9.84;69.94
57248;BME280;55809;46.618;10.764;2023-04-20T08:47:48;92294.56;;;10.10;69.72
57248;BME280;55809;46.618;10.764;2023-04-20T08:50:18;92262.53;;;9.69;70.12
57248;BME280;55809;46.618;10.764;2023-04-20T08:52:45;92257.34;;;9.54;69.56
57248;BME280;55809;46.618;10.764;2023-04-20T08:55:14;92269.72;;;9.75;69.79
57248;BME280;55809;46.618;10.764;2023-04-20T08:57:41;92248.56;;;9.74;69.27
57248;BME280;55809;46.618;10.764;2023-04-20T09:00:09;92308.78;;;9.91;70.03
57248;BME280;55809;46.618;10.764;2023-04-20T09:02:47;92300.72;;;9.87;70.27
57248;BME280;55809;46.618;10.764;2023-04-20T09:05:14;92298.13;;;9.80;70.05
57248;BME280;55809;46.618;10.764;2023-04-20T09:07:51;92263.28;;;9.69;68.60
57248;BME280;55809;46.618;10.764;2023-04-20T09:10:19;92249.34;;;9.98;68.11
57248;BME280;55809;46.618;10.764;2023-04-20T09:12:48;92301.19;;;10.32;67.37
57248;BME280;55809;46.618;10.764;2023-04-20T09:15:24;92304.94;;;10.39;68.22
57248;BME280;55809;46.618;10.764;2023-04-20T09:17:51;92301.19;;;10.32;67.93
57248;BME280;55809;46.618;10.764;2023-04-20T09:20:26;92296.19;;;10.54;68.01
57248;BME280;55809;46.618;10.764;2023-04-20T09:22:56;92247.31;;;10.89;65.72
57248;BME280;55809;46.618;10.764;2023-04-20T09:25:23;92285.59;;;11.76;63.74
57248;BME280;55809;46.618;10.764;2023-04-20T09:27:56;92272.78;;;12.13;61.94
57248;BME280;55809;46.618;10.764;2023-04-20T09:30:23;92256.75;;;12.51;61.13
57248;BME280;55809;46.618;10.764;2023-04-20T09:33:00;92235.63;;;12.46;59.39
57248;BME280;55809;46.618;10.764;2023-04-20T09:35:27;92258.69;;;12.67;59.08
57248;BME280;55809;46.618;10.764;2023-04-20T09:37:56;92259.09;;;12.04;60.61
57248;BME280;55809;46.618;10.764;2023-04-20T09:40:24;92256.75;;;12.06;61.06
57248;BME280;55809;46.618;10.764;2023-04-20T09:42:52;92193.94;;;10.96;62.46
57248;BME280;55809;46.618;10.764;2023-04-20T09:45:19;92263.28;;;11.19;63.09
57248;BME280;55809;46.618;10.764;2023-04-20T09:47:47;92264.75;;;11.04;64.82
57248;BME280;55809;46.618;10.764;2023-04-20T09:50:15;92270.25;;;11.37;64.34
57248;BME280;55809;46.618;10.764;2023-04-20T09:52:44;92273.28;;;11.02;64.03
57248;BME280;55809;46.618;10.764;2023-04-20T09:55:15;92259.38;;;10.84;65.78
57248;BME280;55809;46.618;10.764;2023-04-20T09:57:43;92265.94;;;11.03;65.05
57248;BME280;55809;46.618;10.764;2023-04-20T10:00:11;92198.84;;;11.01;63.98
57248;BME280;55809;46.618;10.764;2023-04-20T10:02:38;92263.53;;;11.78;64.36
57248;BME280;55809;46.618;10.764;2023-04-20T10:05:06;92265.25;;;11.71;61.20
57248;BME280;55809;46.618;10.764;2023-04-20T10:07:33;92255.00;;;11.46;63.03
57248;BME280;55809;46.618;10.764;2023-04-20T10:10:05;92209.88;;;11.27;62.68
57248;BME280;55809;46.618;10.764;2023-04-20T10:12:45;92222.28;;;11.41;62.40
57248;BME280;55809;46.618;10.764;2023-04-20T10:15:12;92231.78;;;11.82;62.98
57248;BME280;55809;46.618;10.764;2023-04-20T10:17:39;92259.25;;;11.80;62.06
57248;BME280;55809;46.618;10.764;2023-04-20T10:20:17;92284.16;;;11.55;62.13
57248;BME280;55809;46.618;10.764;2023-04-20T10:22:45;92249.00;;;11.55;61.86
57248;BME280;55809;46.618;10.764;2023-04-20T10:25:16;92211.91;;;11.23;62.71
57248;BME280;55809;46.618;10.764;2023-04-20T10:27:56;92252.94;;;11.34;63.75
57248;BME280;55809;46.618;10.764;2023-04-20T10:30:24;92193.41;;;10.65;63.16
57248;BME280;55809;46.618;10.764;2023-04-20T10:33:02;92236.16;;;11.07;63.89
57248;BME280;55809;46.618;10.764;2023-04-20T10:35:40;92246.06;;;11.13;63.11
57248;BME280;55809;46.618;10.764;2023-04-20T10:38:07;92205.81;;;10.83;63.48
57248;BME280;55809;46.618;10.764;2023-04-20T10:40:35;92245.06;;;11.23;62.67
57248;BME280;55809;46.618;10.764;2023-04-20T10:43:03;92251.66;;;11.22;62.38
57248;BME280;55809;46.618;10.764;2023-04-20T10:45:33;92254.25;;;11.62;63.42
57248;BME280;55809;46.618;10.764;2023-04-20T10:48:06;92241.91;;;11.61;61.77
57248;BME280;55809;46.618;10.764;2023-04-20T10:50:34;92186.75;;;11.26;62.27
57248;BME280;55809;46.618;10.764;2023-04-20T10:53:01;92229.84;;;11.66;63.19
57248;BME280;55809;46.618;10.764;2023-04-20T10:55:28;92170.03;;;11.47;62.59
57248;BME280;55809;46.618;10.764;2023-04-20T10:57:56;92220.28;;;11.78;63.16
57248;BME280;55809;46.618;10.764;2023-04-20T11:00:26;92190.81;;;11.83;63.14
57248;BME280;55809;46.618;10.764;2023-04-20T11:02:56;92217.00;;;11.70;62.96
57248;BME280;55809;46.618;10.764;2023-04-20T11:05:24;92207.78;;;11.84;64.04
57248;BME280;55809;46.618;10.764;2023-04-20T11:07:52;92213.13;;;12.04;61.43
57248;BME280;55809;46.618;10.764;2023-04-20T11:10:20;92216.75;;;11.81;62.65
57248;BME280;55809;46.618;10.764;2023-04-20T11:12:48;92173.56;;;11.61;63.17
57248;BME280;55809;46.618;10.764;2023-04-20T11:15:15;92149.94;;;11.16;63.88
57248;BME280;55809;46.618;10.764;2023-04-20T11:17:44;92210.41;;;11.71;64.27
57248;BME280;55809;46.618;10.764;2023-04-20T11:20:12;92204.31;;;11.67;63.84
57248;BME280;55809;46.618;10.764;2023-04-20T11:22:42;92198.50;;;11.36;64.50
57248;BME280;55809;46.618;10.764;2023-04-20T11:25:10;92206.44;;;11.59;65.64
57248;BME280;55809;46.618;10.764;2023-04-20T11:27:38;92131.59;;;11.07;64.28
57248;BME280;55809;46.618;10.764;2023-04-20T11:30:06;92200.75;;;11.37;64.33
57248;BME280;55809;46.618;10.764;2023-04-20T11:32:34;92198.56;;;11.16;65.49
57248;BME280;55809;46.618;10.764;2023-04-20T11:35:06;92205.94;;;11.12;64.66
57248;BME280;55809;46.618;10.764;2023-04-20T11:37:45;92161.56;;;11.13;63.42
57248;BME280;55809;46.618;10.764;2023-04-20T11:40:13;92199.66;;;11.35;64.43
57248;BME280;55809;46.618;10.764;2023-04-20T11:42:40;92133.28;;;11.01;64.76
57248;BME280;55809;46.618;10.764;2023-04-20T11:45:09;92162.44;;;11.42;64.59
57248;BME280;55809;46.618;10.764;2023-04-20T11:47:36;92193.78;;;11.56;63.46
57248;BME280;55809;46.618;10.764;2023-04-20T11:50:08;92161.81;;;11.18;64.72
57248;BME280;55809;46.618;10.764;2023-04-20T11:52:36;92151.81;;;10.83;65.24
57248;BME280;55809;46.618;10.764;2023-04-20T11:55:04;92155.88;;;10.91;65.83
57248;BME280;55809;46.618;10.764;2023-04-20T11:57:31;92183.66;;;11.08;65.02
57248;BME280;55809;46.618;10.764;2023-04-20T11:59:59;92199.03;;;11.11;65.25
57248;BME280;55809;46.618;10.764;2023-04-20T12:02:26;92168.66;;;10.70;65.95
57248;BME280;55809;46.618;10.764;2023-04-20T12:04:53;92216.66;;;11.15;65.42
57248;BME280;55809;46.618;10.764;2023-04-20T12:07:22;92220.47;;;11.18;66.05
57248;BME280;55809;46.618;10.764;2023-04-20T12:09:49;92236.44;;;11.28;65.95
57248;BME280;55809;46.618;10.764;2023-04-20T12:12:16;92233.06;;;11.24;64.82
57248;BME280;55809;46.618;10.764;2023-04-20T12:14:43;92194.66;;;10.80;64.69
57248;BME280;55809;46.618;10.764;2023-04-20T12:17:10;92241.00;;;10.95;65.52
57248;BME280;55809;46.618;10.764;2023-04-20T12:19:37;92249.03;;;10.99;65.21
57248;BME280;55809;46.618;10.764;2023-04-20T12:22:04;92247.53;;;10.98;66.27
57248;BME280;55809;46.618;10.764;2023-04-20T12:24:32;92243.59;;;10.83;65.50
57248;BME280;55809;46.618;10.764;2023-04-20T12:26:59;92235.56;;;10.79;68.45
57248;BME280;55809;46.618;10.764;2023-04-20T12:29:28;92158.31;;;10.05;67.76
57248;BME280;55809;46.618;10.764;2023-04-20T12:31:57;92240.19;;;10.59;70.40
57248;BME280;55809;46.618;10.764;2023-04-20T12:34:24;92185.56;;;10.11;72.10
57248;BME280;55809;46.618;10.764;2023-04-20T12:36:52;92258.31;;;10.58;72.25
57248;BME280;55809;46.618;10.764;2023-04-20T12:39:19;92262.44;;;10.66;72.62
57248;BME280;55809;46.618;10.764;2023-04-20T12:41:47;92170.56;;;10.10;71.00
57248;BME280;55809;46.618;10.764;2023-04-20T12:44:14;92261.66;;;10.66;72.80
57248;BME280;55809;46.618;10.764;2023-04-20T12:46:41;92257.28;;;10.52;73.93
57248;BME280;55809;46.618;10.764;2023-04-20T12:49:08;92260.50;;;10.67;73.61
57248;BME280;55809;46.618;10.764;2023-04-20T12:51:35;92261.31;;;10.84;74.18
57248;BME280;55809;46.618;10.764;2023-04-20T12:54:02;92260.53;;;11.03;73.53
57248;BME280;55809;46.618;10.764;2023-04-20T12:56:29;92259.22;;;11.11;72.11
57248;BME280;55809;46.618;10.764;2023-04-20T12:58:57;92261.91;;;11.11;74.15